Airfield :
LOGIN :

Register | Disclaimer

   EN    FR    IT 

 










Legend :    VFR   Marginal VFR   IFR   Intensive IFR   Very Intensive IFR
Visi :
Ceiling :
>= 8 km
>= 3000ft
5 to 8 km
1000 to 3000 ft
1500m to 5 km
500 to 1000 ft
800 to 1500m
200 to 500 ft
< 800m
< 200 ft
Symbols :   Thunderstorms  Fog  Heavy snow  Heavy precipitations  Wind > 20 kt
SIGMETs :     Misc.  Thunderstorms  Icing  Turbulence  Mountain Waves  Volcanic Ashes







- Airport Elevation : 202 ft
- IATA code : SQZ


EGXP - RAF Scampton

CURRENT METAR :
  • 211050Z 17007KT 9999 BKN026 18/12 Q1021 BLU

EXPIRED METARs :
  • 210950Z 16008KT 9999 SCT020 17/12 Q1022 WHT
  • 210850Z 12007KT 9999 FEW016 BKN220 16/12 Q1021 BLU

TAF TAF EGXP
Valid from the 21 at 12:00 until the 21 at 18:00 UTC


211056Z 2112/2118 15008KT 9999 SCT025
TEMPO 2112/2115 SCT018
BECMG 2115/2118 BKN018
PROB30
TEMPO 2117/2118 7000 RA
No reported NOTAMs for that airfield.



MET'MAP, your aeronautical weather chart ! - Copyright ORBIFLY December 2007 - Disclaimer

ORBIFLY MET'MAP TEAM :

Programming & Development : Alexandra Zaïnal
Concept & Development : Baudouin d'Aumeries
Co-Development & Prog : Marc-Olivier Méhu
Technical & hardware support : Manuel Goepfert

Contact : metmap@orbifly.com




SOURCES & CREDITS :

   NOAA